CheckWX is a tool to help pilots better visualize weather data.  It is not intended as a substitute for an official pre-flight weather briefing.

08:58:14 UTC

KSYI METAR
Bomar Field-Shelbyville Municipal Airport
Shelbyville, Tennessee, USA
Current

23 mins ago

KSYI 220835Z AUTO VRB04KT 9SM SCT028 SCT040 OVC048 08/07 A3015 RMK A01
Observed
Feb-22 @ 08:35 UTC
Wind
  • Variable at 4 KTS
Visibility
9 SM
Flight Rules
VFR
Cloud Levels
  • Scattered at 2,800' AGL
  • Scattered at 4,000' AGL
  • Overcast at 4,800' AGL
Temperature
C / 46°F
Dewpoint
C / 45°F
Humidity
93%
Altimeter
30.15" Hg
Pressure
1021.02 hPa
Previous

43 mins ago

KSYI 220815Z AUTO 06004KT 6SM BR FEW024 FEW034 OVC048 08/07 A3016 RMK A01
Observed
Feb-22 @ 08:15 UTC
Wind
  • 060° at 4 KTS
Visibility
6 SM
Flight Rules
VFR
Conditions
Mist
Cloud Levels
  • Few at 2,400' AGL
  • Few at 3,400' AGL
  • Overcast at 4,800' AGL
Temperature
C / 46°F
Dewpoint
C / 45°F
Humidity
93%
Altimeter
30.16" Hg
Pressure
1021.32 hPa
Previous

1 hour ago

KSYI 220755Z AUTO 04005KT 10SM FEW035 OVC049 08/07 A3015 RMK A01 P0001
Observed
Feb-22 @ 07:55 UTC
Wind
  • 040° at 5 KTS
Visibility
10 SM
Flight Rules
VFR
Cloud Levels
  • Few at 3,500' AGL
  • Overcast at 4,900' AGL
Temperature
C / 46°F
Dewpoint
C / 45°F
Humidity
93%
Altimeter
30.15" Hg
Pressure
1021.02 hPa
Current Rain
0.01"